createdAt,value
2019-03-30T00:03:54.544Z,1015.06
2019-03-30T00:08:53.683Z,1015.03
2019-03-30T00:13:54.638Z,1015.00
2019-03-30T00:18:54.480Z,1014.93
2019-03-30T00:23:54.538Z,1014.93
2019-03-30T00:28:54.514Z,1014.98
2019-03-30T00:33:54.741Z,1014.91
2019-03-30T00:38:55.767Z,1014.88
2019-03-30T00:43:53.530Z,1014.91
2019-03-30T00:48:53.540Z,1014.81
2019-03-30T00:53:52.540Z,1014.74
2019-03-30T00:58:52.590Z,1014.79
2019-03-30T01:03:53.774Z,1014.68
2019-03-30T01:08:52.590Z,1014.62
2019-03-30T01:13:52.507Z,1014.51
2019-03-30T01:18:52.539Z,1014.50
2019-03-30T01:23:52.612Z,1014.48
2019-03-30T01:28:53.586Z,1014.42
2019-03-30T01:33:52.488Z,1014.44
2019-03-30T01:38:51.496Z,1014.33
2019-03-30T01:43:51.662Z,1014.33
2019-03-30T01:48:50.837Z,1014.28
2019-03-30T01:58:50.586Z,1014.15
2019-03-30T02:03:49.520Z,1014.12
2019-03-30T02:08:49.503Z,1014.07
2019-03-30T02:13:49.509Z,1014.04
2019-03-30T02:18:49.535Z,1013.99
2019-03-30T02:23:48.531Z,1014.01
2019-03-30T02:28:48.516Z,1013.99
2019-03-30T02:33:48.564Z,1013.90
2019-03-30T02:38:47.873Z,1013.93
2019-03-30T02:43:46.772Z,1013.85
2019-03-30T02:48:46.678Z,1013.78
2019-03-30T02:53:46.567Z,1013.86
2019-03-30T02:58:46.591Z,1013.78
2019-03-30T03:03:46.586Z,1013.56
2019-03-30T03:08:46.531Z,1013.59
2019-03-30T03:13:46.805Z,1013.67
2019-03-30T03:18:45.606Z,1013.65
2019-03-30T03:23:46.597Z,1013.56
2019-03-30T03:28:46.742Z,1013.51
2019-03-30T03:33:45.664Z,1013.45
2019-03-30T03:38:46.566Z,1013.43
2019-03-30T03:43:46.742Z,1013.41
2019-03-30T03:48:45.882Z,1013.45
2019-03-30T03:53:45.818Z,1013.39
2019-03-30T03:58:45.625Z,1013.31
2019-03-30T04:03:44.562Z,1013.25
2019-03-30T04:08:43.584Z,1013.23
2019-03-30T04:13:42.611Z,1013.25
2019-03-30T04:18:42.605Z,1013.22
2019-03-30T04:23:43.756Z,1013.17
2019-03-30T04:28:43.677Z,1013.27
2019-03-30T04:33:43.562Z,1013.14
2019-03-30T04:38:43.754Z,1013.04
2019-03-30T04:43:43.754Z,1013.03
2019-03-30T04:48:43.769Z,1012.95
2019-03-30T04:53:42.595Z,1012.98
2019-03-30T04:58:42.730Z,1012.97
2019-03-30T05:03:41.567Z,1012.97
2019-03-30T05:08:41.606Z,1012.88
2019-03-30T05:13:41.822Z,1012.95
2019-03-30T05:18:41.616Z,1012.95
2019-03-30T05:23:41.834Z,1012.96
2019-03-30T05:28:40.702Z,1012.91
2019-03-30T05:33:39.622Z,1012.94
2019-03-30T05:38:39.581Z,1012.88
2019-03-30T05:43:39.560Z,1012.91
2019-03-30T05:48:39.792Z,1012.83
2019-03-30T05:53:38.830Z,1012.86
2019-03-30T05:58:38.588Z,1012.78
2019-03-30T06:03:38.622Z,1012.89
2019-03-30T06:08:38.647Z,1012.76
2019-03-30T06:13:38.829Z,1012.78
2019-03-30T06:18:37.763Z,1012.74
2019-03-30T06:23:38.732Z,1012.70
2019-03-30T06:28:38.594Z,1012.72
2019-03-30T06:33:38.727Z,1012.68
2019-03-30T06:38:37.620Z,1012.68
2019-03-30T06:43:36.834Z,1012.68
2019-03-30T06:48:37.775Z,1012.56
2019-03-30T06:53:37.626Z,1012.50
2019-03-30T06:58:37.832Z,1012.45
2019-03-30T07:03:37.687Z,1012.54
2019-03-30T07:08:36.759Z,1012.51
2019-03-30T07:13:36.257Z,1012.46
2019-03-30T07:18:35.819Z,1012.43
2019-03-30T07:23:36.962Z,1012.51
2019-03-30T07:28:36.675Z,1012.49
2019-03-30T07:33:36.701Z,1012.56
2019-03-30T07:38:36.901Z,1012.55
2019-03-30T07:43:36.956Z,1012.56
2019-03-30T07:48:37.652Z,1012.50
2019-03-30T07:53:44.284Z,1012.57
2019-03-30T07:58:36.672Z,1012.53
2019-03-30T08:03:36.919Z,1012.56
2019-03-30T08:08:37.780Z,1012.46
2019-03-30T08:13:37.988Z,1012.48
2019-03-30T08:18:36.794Z,1012.37
2019-03-30T08:23:40.653Z,1012.47
2019-03-30T08:28:35.791Z,1012.49
2019-03-30T08:33:36.863Z,1012.52
2019-03-30T08:38:35.954Z,1012.48
2019-03-30T08:43:35.933Z,1012.43
2019-03-30T08:48:35.757Z,1012.47
2019-03-30T08:53:35.764Z,1012.32
2019-03-30T08:58:37.042Z,1012.28
2019-03-30T09:03:36.081Z,1012.24
2019-03-30T09:08:36.753Z,1012.25
2019-03-30T09:13:36.008Z,1012.20
2019-03-30T09:18:35.191Z,1012.19
2019-03-30T09:23:35.780Z,1012.08
2019-03-30T09:28:37.136Z,1012.05
2019-03-30T09:33:35.796Z,1011.98
2019-03-30T09:38:35.731Z,1011.97
2019-03-30T09:43:37.398Z,1012.03
2019-03-30T09:48:34.781Z,1011.96
2019-03-30T09:53:34.932Z,1011.93
2019-03-30T09:58:34.791Z,1011.95
2019-03-30T10:03:33.944Z,1011.84
2019-03-30T10:08:33.752Z,1011.76
2019-03-30T10:13:32.910Z,1011.94
2019-03-30T10:18:31.877Z,1011.82
2019-03-30T10:23:32.099Z,1011.82
2019-03-30T10:28:30.750Z,1011.78
2019-03-30T10:33:30.801Z,1011.76
2019-03-30T10:38:29.801Z,1011.83
2019-03-30T10:43:28.971Z,1011.79
2019-03-30T10:48:28.130Z,1011.71
2019-03-30T10:53:27.799Z,1011.74
2019-03-30T10:58:27.202Z,1011.65
2019-03-30T11:03:26.956Z,1011.63
2019-03-30T11:08:27.783Z,1011.66
2019-03-30T11:13:27.762Z,1011.58
2019-03-30T11:18:26.709Z,1011.63
2019-03-30T11:23:26.815Z,1011.57
2019-03-30T11:28:25.917Z,1011.49
2019-03-30T11:33:25.800Z,1011.37
2019-03-30T11:43:24.823Z,1011.42
2019-03-30T11:48:24.725Z,1011.30
2019-03-30T11:53:24.745Z,1011.30
2019-03-30T11:58:24.033Z,1011.30
2019-03-30T12:03:23.717Z,1011.13
2019-03-30T12:08:23.760Z,1011.12
2019-03-30T12:13:22.786Z,1011.15
2019-03-30T12:18:22.759Z,1011.08
2019-03-30T12:23:22.730Z,1011.05
2019-03-30T12:28:22.744Z,1010.90
2019-03-30T12:33:22.185Z,1010.89
2019-03-30T12:38:21.717Z,1010.87
2019-03-30T12:43:20.795Z,1010.75
2019-03-30T12:48:20.866Z,1010.72
2019-03-30T12:53:20.733Z,1010.73
2019-03-30T12:58:19.735Z,1010.75
2019-03-30T13:03:18.820Z,1010.62
2019-03-30T13:08:18.712Z,1010.57
2019-03-30T13:13:17.712Z,1010.60
2019-03-30T13:18:17.714Z,1010.65
2019-03-30T13:23:17.712Z,1010.55
2019-03-30T13:28:18.751Z,1010.48
2019-03-30T13:33:17.873Z,1010.42
2019-03-30T13:38:20.640Z,1010.50
2019-03-30T13:43:17.772Z,1010.37
2019-03-30T13:48:16.713Z,1010.42
2019-03-30T13:53:16.731Z,1010.40
2019-03-30T13:58:16.323Z,1010.25
2019-03-30T14:03:15.711Z,1010.33
2019-03-30T14:08:15.346Z,1010.17
2019-03-30T14:13:16.114Z,1010.20
2019-03-30T14:18:16.005Z,1010.18
2019-03-30T14:23:15.878Z,1010.20
2019-03-30T14:28:15.301Z,1010.15
2019-03-30T14:33:13.812Z,1010.12
2019-03-30T14:38:12.910Z,1009.99
2019-03-30T14:43:12.725Z,1010.10
2019-03-30T14:48:13.864Z,1010.07
2019-03-30T14:53:13.405Z,1009.94
2019-03-30T14:58:13.705Z,1010.05
2019-03-30T15:03:13.113Z,1009.92
2019-03-30T15:08:12.781Z,1009.95
2019-03-30T15:13:12.761Z,1009.89
2019-03-30T15:18:13.868Z,1009.95
2019-03-30T15:23:12.669Z,1009.90
2019-03-30T15:28:12.754Z,1009.88
2019-03-30T15:33:12.893Z,1009.80
2019-03-30T15:38:12.714Z,1009.77
2019-03-30T15:43:12.054Z,1009.79
2019-03-30T15:48:11.916Z,1009.85
2019-03-30T15:53:11.761Z,1009.74
2019-03-30T15:58:10.751Z,1009.77
2019-03-30T16:03:09.875Z,1009.74
2019-03-30T16:08:08.978Z,1009.75
2019-03-30T16:13:07.802Z,1009.87
2019-03-30T16:18:06.742Z,1009.80
2019-03-30T16:23:06.726Z,1009.74
2019-03-30T16:28:05.923Z,1009.80
2019-03-30T16:33:06.109Z,1009.84
2019-03-30T16:38:06.030Z,1009.78
2019-03-30T16:43:08.222Z,1009.77
2019-03-30T16:48:04.739Z,1009.80
2019-03-30T16:53:03.711Z,1009.76
2019-03-30T16:58:03.686Z,1009.73
2019-03-30T17:03:03.772Z,1009.72
2019-03-30T17:08:02.714Z,1009.78
2019-03-30T17:13:01.847Z,1009.74
2019-03-30T17:18:01.731Z,1009.81
2019-03-30T17:23:00.668Z,1009.69
2019-03-30T17:28:00.697Z,1009.76
2019-03-30T17:33:01.946Z,1009.70
2019-03-30T17:38:00.705Z,1009.78
2019-03-30T17:42:59.984Z,1009.74
2019-03-30T17:47:58.977Z,1009.73
2019-03-30T17:52:58.756Z,1009.80
2019-03-30T17:58:11.983Z,1009.79
2019-03-30T18:02:57.677Z,1009.83
2019-03-30T18:08:01.572Z,1009.88
2019-03-30T18:12:59.805Z,1009.95
2019-03-30T18:17:59.688Z,1010.02
2019-03-30T18:22:59.843Z,1009.97
2019-03-30T18:27:59.633Z,1010.11
2019-03-30T18:32:59.771Z,1010.15
2019-03-30T18:37:59.664Z,1010.21
2019-03-30T18:42:58.666Z,1010.35
2019-03-30T18:47:57.924Z,1010.28
2019-03-30T18:52:57.737Z,1010.33
2019-03-30T18:57:57.750Z,1010.36
2019-03-30T19:02:57.674Z,1010.45
2019-03-30T19:07:57.021Z,1010.51
2019-03-30T19:12:56.674Z,1010.53
2019-03-30T19:17:56.662Z,1010.56
2019-03-30T19:22:55.779Z,1010.45
2019-03-30T19:27:55.713Z,1010.53
2019-03-30T19:32:56.001Z,1010.56
2019-03-30T19:37:55.037Z,1010.53
2019-03-30T19:42:55.828Z,1010.57
2019-03-30T19:47:56.693Z,1010.64
2019-03-30T19:52:56.641Z,1010.69
2019-03-30T19:57:56.819Z,1010.60
2019-03-30T20:02:56.654Z,1010.70
2019-03-30T20:08:11.217Z,1010.71
2019-03-30T20:12:56.893Z,1010.74
2019-03-30T20:17:56.920Z,1010.79
2019-03-30T20:22:57.685Z,1010.77
2019-03-30T20:27:58.087Z,1010.80
2019-03-30T20:32:57.727Z,1010.83
2019-03-30T20:37:57.830Z,1010.75
2019-03-30T20:42:57.682Z,1010.75
2019-03-30T20:47:56.849Z,1010.74
2019-03-30T20:52:57.674Z,1010.75
2019-03-30T20:57:57.817Z,1010.74
2019-03-30T21:02:56.667Z,1010.73
2019-03-30T21:07:56.142Z,1010.78
2019-03-30T21:12:54.747Z,1010.75
2019-03-30T21:17:54.763Z,1010.88
2019-03-30T21:22:53.883Z,1010.84
2019-03-30T21:27:53.098Z,1010.76
2019-03-30T21:32:52.050Z,1010.85
2019-03-30T21:37:51.714Z,1010.88
2019-03-30T21:42:51.761Z,1010.95
2019-03-30T21:47:51.746Z,1010.88
2019-03-30T21:52:51.969Z,1010.80
2019-03-30T21:57:50.934Z,1010.85
2019-03-30T22:02:51.777Z,1010.87
2019-03-30T22:07:51.099Z,1010.97
2019-03-30T22:12:51.829Z,1010.89
2019-03-30T22:17:51.894Z,1010.78
2019-03-30T22:22:51.826Z,1010.85
2019-03-30T22:27:51.885Z,1010.86
2019-03-30T22:32:50.730Z,1010.88
2019-03-30T22:37:50.654Z,1010.91
2019-03-30T22:42:51.718Z,1010.90
2019-03-30T22:47:51.836Z,1010.82
2019-03-30T22:52:50.850Z,1010.87
2019-03-30T22:57:50.924Z,1010.84
2019-03-30T23:02:50.636Z,1010.87
2019-03-30T23:07:50.809Z,1010.93
2019-03-30T23:12:50.726Z,1010.90
2019-03-30T23:17:50.031Z,1010.79
2019-03-30T23:22:50.835Z,1010.89
2019-03-30T23:27:50.750Z,1010.81
2019-03-30T23:32:51.729Z,1010.80
2019-03-30T23:37:51.674Z,1010.81
2019-03-30T23:42:51.795Z,1010.77
2019-03-30T23:47:52.717Z,1010.79
2019-03-30T23:52:51.747Z,1010.77
2019-03-30T23:57:52.687Z,1010.84
